Alexandria International Airport
KAEX : now visible

Airfield :











YOU CAN JOIN US ON...

 
LOGIN :

Register | Disclaimer

   EN    FR    IT 

 









Legend :    VFR   Marginal VFR   IFR   Intensive IFR   Very Intensive IFR
Visi :
Ceiling :
>= 8 km
>= 3000ft
5 to 8 km
1000 to 3000 ft
1500m to 5 km
500 to 1000 ft
800 to 1500m
200 to 500 ft
< 800m
< 200 ft
Symbols :   Thunderstorms  Fog  Heavy snow  Heavy precipitations  Wind > 20 kt






- Airport Elevation : 89 ft
- IATA code : AEX


KAEX - Alexandria International

CURRENT METAR :
  • 240153Z 07006KT 6SM BR OVC004 12/12 A3006 RMK AO2 SLP183 T01170117

EXPIRED METARs :
  • 240103Z 07004KT 5SM BR OVC004 12/12 A3005 RMK AO2 T01220117
  • 240053Z 09007KT 7SM OVC005 12/12 A3005 RMK AO2 SLP181 T01220117
  • 232353Z 09004KT 10SM OVC007 13/12 A3005 RMK AO2 SLP182 T01280117 10139 20117 51002

TAF KAEX
Valid from the 24 at 03:00 until the 25 at 00:00 UTC


240235Z 2403/2424 07006KT 6SM BR OVC004
FM240600 12005KT 4SM BR OVC003
FM241000 12005KT 1SM BR OVC003
FM241500 15008KT 4SM BR VCSH OVC003
FM241600 15008KT P6SM VCSH OVC007
KZHU FIR / North America



MET'MAP, your aeronautical weather chart ! - Copyright ORBIFLY December 2007 - Disclaimer

ORBIFLY MET'MAP TEAM :

Programming & Development : Alexandra Zaïnal
Concept & original design : Baudouin d'Aumeries
Assistance for programming : Marc-Olivier Méhu
Technical & hardware support : Manuel Goepfert

Contact : metmap@orbifly.com




SOURCES & CREDITS :

   NOAA       Earth
Advisory